sensor_id;sensor_type;location;lat;lon;timestamp;pressure;altitude;pressure_sealevel;temperature;humidity
63281;BME280;49406;51.044;3.766;2023-03-21T00:01:35;101737.58;;;10.34;100.00
63281;BME280;49406;51.044;3.766;2023-03-21T00:04:10;101730.21;;;10.33;100.00
63281;BME280;49406;51.044;3.766;2023-03-21T00:06:45;101729.96;;;10.29;100.00
63281;BME280;49406;51.044;3.766;2023-03-21T00:09:20;101729.57;;;10.27;100.00
63281;BME280;49406;51.044;3.766;2023-03-21T00:11:55;101723.97;;;10.27;100.00
63281;BME280;49406;51.044;3.766;2023-03-21T00:14:32;101714.52;;;10.26;100.00
63281;BME280;49406;51.044;3.766;2023-03-21T00:17:07;101715.48;;;10.30;100.00
63281;BME280;49406;51.044;3.766;2023-03-21T00:19:43;101714.87;;;10.41;100.00
63281;BME280;49406;51.044;3.766;2023-03-21T00:22:18;101714.19;;;10.42;100.00
63281;BME280;49406;51.044;3.766;2023-03-21T00:24:53;101706.49;;;10.43;100.00
63281;BME280;49406;51.044;3.766;2023-03-21T00:27:28;101703.42;;;10.46;100.00
63281;BME280;49406;51.044;3.766;2023-03-21T00:30:03;101697.98;;;10.45;100.00
63281;BME280;49406;51.044;3.766;2023-03-21T00:32:38;101700.74;;;10.43;100.00
63281;BME280;49406;51.044;3.766;2023-03-21T00:35:14;101698.05;;;10.40;100.00
63281;BME280;49406;51.044;3.766;2023-03-21T00:37:49;101697.88;;;10.41;100.00
63281;BME280;49406;51.044;3.766;2023-03-21T00:40:23;101694.11;;;10.37;100.00
63281;BME280;49406;51.044;3.766;2023-03-21T00:42:58;101691.00;;;10.38;100.00
63281;BME280;49406;51.044;3.766;2023-03-21T00:45:33;101690.36;;;10.48;100.00
63281;BME280;49406;51.044;3.766;2023-03-21T00:48:09;101684.81;;;10.50;100.00
63281;BME280;49406;51.044;3.766;2023-03-21T00:50:45;101682.89;;;10.50;100.00
63281;BME280;49406;51.044;3.766;2023-03-21T00:53:20;101681.13;;;10.49;100.00
63281;BME280;49406;51.044;3.766;2023-03-21T00:55:55;101674.20;;;10.44;100.00
63281;BME280;49406;51.044;3.766;2023-03-21T00:58:29;101672.43;;;10.43;100.00
63281;BME280;49406;51.044;3.766;2023-03-21T01:01:05;101667.33;;;10.42;100.00
63281;BME280;49406;51.044;3.766;2023-03-21T01:03:41;101662.55;;;10.47;100.00
63281;BME280;49406;51.044;3.766;2023-03-21T01:06:20;101661.05;;;10.51;100.00
63281;BME280;49406;51.044;3.766;2023-03-21T01:08:55;101663.32;;;10.51;100.00
63281;BME280;49406;51.044;3.766;2023-03-21T01:11:30;101659.59;;;10.48;100.00
63281;BME280;49406;51.044;3.766;2023-03-21T01:14:05;101654.38;;;10.42;100.00
63281;BME280;49406;51.044;3.766;2023-03-21T01:16:39;101650.08;;;10.37;100.00
63281;BME280;49406;51.044;3.766;2023-03-21T01:19:15;101650.33;;;10.33;100.00
63281;BME280;49406;51.044;3.766;2023-03-21T01:21:51;101643.23;;;10.27;100.00
63281;BME280;49406;51.044;3.766;2023-03-21T01:24:25;101639.29;;;10.23;100.00
63281;BME280;49406;51.044;3.766;2023-03-21T01:27:02;101634.48;;;10.21;100.00
63281;BME280;49406;51.044;3.766;2023-03-21T01:29:36;101625.60;;;10.21;100.00
63281;BME280;49406;51.044;3.766;2023-03-21T01:32:11;101624.56;;;10.29;100.00
63281;BME280;49406;51.044;3.766;2023-03-21T01:34:46;101619.07;;;10.25;100.00
63281;BME280;49406;51.044;3.766;2023-03-21T01:37:21;101613.00;;;10.21;100.00
63281;BME280;49406;51.044;3.766;2023-03-21T01:39:58;101609.23;;;10.16;100.00
63281;BME280;49406;51.044;3.766;2023-03-21T01:42:33;101607.09;;;10.07;100.00
63281;BME280;49406;51.044;3.766;2023-03-21T01:48:14;101606.30;;;9.95;100.00
63281;BME280;49406;51.044;3.766;2023-03-21T01:50:49;101599.69;;;9.89;100.00
63281;BME280;49406;51.044;3.766;2023-03-21T01:53:27;101600.28;;;9.85;100.00
63281;BME280;49406;51.044;3.766;2023-03-21T01:56:07;101597.93;;;9.80;100.00
63281;BME280;49406;51.044;3.766;2023-03-21T01:58:45;101593.23;;;9.82;100.00
63281;BME280;49406;51.044;3.766;2023-03-21T02:01:21;101589.23;;;9.90;100.00
63281;BME280;49406;51.044;3.766;2023-03-21T02:03:56;101582.73;;;9.88;100.00
63281;BME280;49406;51.044;3.766;2023-03-21T02:06:39;101581.79;;;9.85;100.00
63281;BME280;49406;51.044;3.766;2023-03-21T02:09:20;101577.06;;;9.85;100.00
63281;BME280;49406;51.044;3.766;2023-03-21T02:11:57;101574.05;;;9.83;100.00
63281;BME280;49406;51.044;3.766;2023-03-21T02:14:33;101569.55;;;9.76;100.00
63281;BME280;49406;51.044;3.766;2023-03-21T02:17:17;101567.54;;;9.73;100.00
63281;BME280;49406;51.044;3.766;2023-03-21T02:20:23;101563.24;;;9.69;100.00
63281;BME280;49406;51.044;3.766;2023-03-21T02:26:31;101552.94;;;9.60;100.00
63281;BME280;49406;51.044;3.766;2023-03-21T02:29:27;101557.62;;;9.59;100.00
63281;BME280;49406;51.044;3.766;2023-03-21T02:32:11;101545.92;;;9.59;100.00
63281;BME280;49406;51.044;3.766;2023-03-21T02:35:30;101545.66;;;9.71;100.00
63281;BME280;49406;51.044;3.766;2023-03-21T02:38:09;101548.75;;;9.75;100.00
63281;BME280;49406;51.044;3.766;2023-03-21T02:40:55;101543.54;;;9.77;100.00
63281;BME280;49406;51.044;3.766;2023-03-21T02:43:38;101542.91;;;9.80;100.00
63281;BME280;49406;51.044;3.766;2023-03-21T02:46:17;101540.68;;;9.82;100.00
63281;BME280;49406;51.044;3.766;2023-03-21T02:49:02;101535.96;;;9.82;100.00
63281;BME280;49406;51.044;3.766;2023-03-21T02:51:40;101534.09;;;9.84;100.00
63281;BME280;49406;51.044;3.766;2023-03-21T02:54:18;101533.08;;;9.86;100.00
63281;BME280;49406;51.044;3.766;2023-03-21T02:56:57;101531.73;;;9.88;100.00
63281;BME280;49406;51.044;3.766;2023-03-21T02:59:33;101533.00;;;9.99;100.00
63281;BME280;49406;51.044;3.766;2023-03-21T03:02:08;101528.34;;;10.09;100.00
63281;BME280;49406;51.044;3.766;2023-03-21T03:04:43;101527.39;;;10.14;100.00
63281;BME280;49406;51.044;3.766;2023-03-21T03:07:30;101528.48;;;10.16;100.00
63281;BME280;49406;51.044;3.766;2023-03-21T03:10:32;101525.50;;;10.15;100.00
63281;BME280;49406;51.044;3.766;2023-03-21T03:13:18;101528.29;;;10.15;100.00
63281;BME280;49406;51.044;3.766;2023-03-21T03:16:01;101525.52;;;10.16;100.00
63281;BME280;49406;51.044;3.766;2023-03-21T03:18:44;101524.85;;;10.17;100.00
63281;BME280;49406;51.044;3.766;2023-03-21T03:21:26;101524.75;;;10.21;100.00
63281;BME280;49406;51.044;3.766;2023-03-21T03:24:07;101529.73;;;10.33;100.00
63281;BME280;49406;51.044;3.766;2023-03-21T03:26:48;101527.33;;;10.35;100.00
63281;BME280;49406;51.044;3.766;2023-03-21T03:29:27;101527.54;;;10.37;100.00
63281;BME280;49406;51.044;3.766;2023-03-21T03:32:06;101527.86;;;10.35;100.00
63281;BME280;49406;51.044;3.766;2023-03-21T03:34:45;101526.27;;;10.35;100.00
63281;BME280;49406;51.044;3.766;2023-03-21T03:37:23;101527.48;;;10.34;100.00
63281;BME280;49406;51.044;3.766;2023-03-21T03:40:03;101528.14;;;10.40;100.00
63281;BME280;49406;51.044;3.766;2023-03-21T03:42:42;101524.05;;;10.45;100.00
63281;BME280;49406;51.044;3.766;2023-03-21T03:45:18;101531.25;;;10.47;100.00
63281;BME280;49406;51.044;3.766;2023-03-21T03:47:56;101525.48;;;10.47;100.00
63281;BME280;49406;51.044;3.766;2023-03-21T03:50:39;101524.70;;;10.43;100.00
63281;BME280;49406;51.044;3.766;2023-03-21T03:53:20;101522.93;;;10.41;100.00
63281;BME280;49406;51.044;3.766;2023-03-21T03:55:57;101522.38;;;10.40;100.00
63281;BME280;49406;51.044;3.766;2023-03-21T03:58:32;101525.84;;;10.40;100.00
63281;BME280;49406;51.044;3.766;2023-03-21T04:01:11;101521.70;;;10.41;100.00
63281;BME280;49406;51.044;3.766;2023-03-21T04:03:47;101519.12;;;10.53;100.00
63281;BME280;49406;51.044;3.766;2023-03-21T04:06:22;101518.26;;;10.54;100.00
63281;BME280;49406;51.044;3.766;2023-03-21T04:08:57;101521.25;;;10.55;100.00
63281;BME280;49406;51.044;3.766;2023-03-21T04:11:32;101518.25;;;10.54;100.00
63281;BME280;49406;51.044;3.766;2023-03-21T04:14:07;101519.02;;;10.47;100.00
63281;BME280;49406;51.044;3.766;2023-03-21T04:16:42;101514.92;;;10.43;100.00
63281;BME280;49406;51.044;3.766;2023-03-21T04:19:17;101510.13;;;10.40;100.00
63281;BME280;49406;51.044;3.766;2023-03-21T04:21:51;101505.86;;;10.45;100.00
63281;BME280;49406;51.044;3.766;2023-03-21T04:24:26;101504.20;;;10.50;100.00
63281;BME280;49406;51.044;3.766;2023-03-21T04:27:05;101502.08;;;10.48;100.00
63281;BME280;49406;51.044;3.766;2023-03-21T04:29:40;101499.23;;;10.45;100.00
63281;BME280;49406;51.044;3.766;2023-03-21T04:32:15;101495.92;;;10.38;100.00
63281;BME280;49406;51.044;3.766;2023-03-21T04:34:52;101497.23;;;10.33;100.00
63281;BME280;49406;51.044;3.766;2023-03-21T04:37:27;101488.69;;;10.34;100.00
63281;BME280;49406;51.044;3.766;2023-03-21T04:40:08;101486.91;;;10.33;100.00
63281;BME280;49406;51.044;3.766;2023-03-21T04:42:43;101484.36;;;10.27;100.00
63281;BME280;49406;51.044;3.766;2023-03-21T04:45:18;101484.65;;;10.24;100.00
63281;BME280;49406;51.044;3.766;2023-03-21T04:47:53;101490.16;;;10.21;100.00
63281;BME280;49406;51.044;3.766;2023-03-21T04:50:27;101486.49;;;10.13;100.00
63281;BME280;49406;51.044;3.766;2023-03-21T04:53:04;101489.00;;;10.08;100.00
63281;BME280;49406;51.044;3.766;2023-03-21T04:55:38;101490.17;;;10.06;100.00
63281;BME280;49406;51.044;3.766;2023-03-21T04:58:13;101493.11;;;10.12;100.00
63281;BME280;49406;51.044;3.766;2023-03-21T05:00:48;101494.34;;;10.12;100.00
63281;BME280;49406;51.044;3.766;2023-03-21T05:03:23;101494.86;;;10.12;100.00
63281;BME280;49406;51.044;3.766;2023-03-21T05:05:58;101497.30;;;10.12;100.00
63281;BME280;49406;51.044;3.766;2023-03-21T05:08:32;101496.15;;;10.07;100.00
63281;BME280;49406;51.044;3.766;2023-03-21T05:11:07;101490.60;;;10.01;100.00
63281;BME280;49406;51.044;3.766;2023-03-21T05:13:43;101492.27;;;10.06;100.00
63281;BME280;49406;51.044;3.766;2023-03-21T05:16:18;101491.31;;;10.09;100.00
63281;BME280;49406;51.044;3.766;2023-03-21T05:18:53;101484.44;;;10.08;100.00
63281;BME280;49406;51.044;3.766;2023-03-21T05:21:28;101477.77;;;10.06;100.00
63281;BME280;49406;51.044;3.766;2023-03-21T05:24:07;101475.44;;;10.03;100.00
63281;BME280;49406;51.044;3.766;2023-03-21T05:26:43;101468.82;;;9.94;100.00
63281;BME280;49406;51.044;3.766;2023-03-21T05:29:22;101466.55;;;9.86;100.00
63281;BME280;49406;51.044;3.766;2023-03-21T05:31:57;101464.58;;;9.92;100.00
63281;BME280;49406;51.044;3.766;2023-03-21T05:34:32;101461.61;;;9.92;100.00
63281;BME280;49406;51.044;3.766;2023-03-21T05:37:07;101456.29;;;9.89;100.00
63281;BME280;49406;51.044;3.766;2023-03-21T05:39:42;101451.00;;;9.86;100.00
63281;BME280;49406;51.044;3.766;2023-03-21T05:42:16;101449.41;;;9.85;100.00
63281;BME280;49406;51.044;3.766;2023-03-21T05:44:52;101446.20;;;9.82;100.00
63281;BME280;49406;51.044;3.766;2023-03-21T05:47:26;101451.45;;;9.83;100.00
63281;BME280;49406;51.044;3.766;2023-03-21T05:50:01;101449.15;;;9.81;100.00
63281;BME280;49406;51.044;3.766;2023-03-21T05:52:36;101445.55;;;9.76;100.00
63281;BME280;49406;51.044;3.766;2023-03-21T05:55:11;101439.86;;;9.72;100.00
63281;BME280;49406;51.044;3.766;2023-03-21T05:57:45;101437.20;;;9.70;100.00
63281;BME280;49406;51.044;3.766;2023-03-21T06:00:20;101438.45;;;9.71;100.00
63281;BME280;49406;51.044;3.766;2023-03-21T06:02:55;101441.27;;;9.80;100.00
63281;BME280;49406;51.044;3.766;2023-03-21T06:05:30;101442.68;;;9.81;100.00
63281;BME280;49406;51.044;3.766;2023-03-21T06:08:05;101443.78;;;9.83;100.00
63281;BME280;49406;51.044;3.766;2023-03-21T06:10:39;101444.00;;;9.86;100.00
63281;BME280;49406;51.044;3.766;2023-03-21T06:13:14;101440.69;;;9.86;100.00
63281;BME280;49406;51.044;3.766;2023-03-21T06:15:49;101437.91;;;9.87;100.00
63281;BME280;49406;51.044;3.766;2023-03-21T06:18:24;101438.38;;;9.84;100.00
63281;BME280;49406;51.044;3.766;2023-03-21T06:20:58;101439.73;;;9.82;100.00
63281;BME280;49406;51.044;3.766;2023-03-21T06:23:33;101444.45;;;9.82;100.00
63281;BME280;49406;51.044;3.766;2023-03-21T06:26:09;101440.40;;;9.80;100.00
63281;BME280;49406;51.044;3.766;2023-03-21T06:28:44;101445.61;;;9.87;100.00
63281;BME280;49406;51.044;3.766;2023-03-21T06:31:19;101441.05;;;9.94;100.00
63281;BME280;49406;51.044;3.766;2023-03-21T06:33:54;101444.05;;;9.96;100.00
63281;BME280;49406;51.044;3.766;2023-03-21T06:36:29;101441.27;;;9.97;100.00
63281;BME280;49406;51.044;3.766;2023-03-21T06:39:04;101445.17;;;10.00;100.00
63281;BME280;49406;51.044;3.766;2023-03-21T06:41:39;101445.25;;;10.05;100.00
63281;BME280;49406;51.044;3.766;2023-03-21T06:44:14;101444.23;;;10.07;100.00
63281;BME280;49406;51.044;3.766;2023-03-21T06:46:49;101445.40;;;10.04;100.00
63281;BME280;49406;51.044;3.766;2023-03-21T06:49:24;101440.34;;;10.04;100.00
63281;BME280;49406;51.044;3.766;2023-03-21T06:51:59;101438.70;;;10.09;100.00
63281;BME280;49406;51.044;3.766;2023-03-21T06:54:34;101434.84;;;10.17;100.00
63281;BME280;49406;51.044;3.766;2023-03-21T06:57:09;101431.98;;;10.21;100.00
63281;BME280;49406;51.044;3.766;2023-03-21T06:59:45;101421.74;;;10.24;100.00
63281;BME280;49406;51.044;3.766;2023-03-21T07:02:20;101425.13;;;10.27;100.00
63281;BME280;49406;51.044;3.766;2023-03-21T07:04:55;101424.45;;;10.29;100.00
63281;BME280;49406;51.044;3.766;2023-03-21T07:07:30;101427.92;;;10.27;100.00
63281;BME280;49406;51.044;3.766;2023-03-21T07:10:06;101424.27;;;10.28;100.00
63281;BME280;49406;51.044;3.766;2023-03-21T07:12:41;101422.83;;;10.36;100.00
63281;BME280;49406;51.044;3.766;2023-03-21T07:15:16;101423.50;;;10.43;100.00
63281;BME280;49406;51.044;3.766;2023-03-21T07:17:50;101420.61;;;10.48;100.00
63281;BME280;49406;51.044;3.766;2023-03-21T07:20:25;101414.56;;;10.53;100.00
63281;BME280;49406;51.044;3.766;2023-03-21T07:23:00;101409.02;;;10.56;100.00
63281;BME280;49406;51.044;3.766;2023-03-21T07:25:35;101405.00;;;10.57;100.00
63281;BME280;49406;51.044;3.766;2023-03-21T07:28:09;101400.98;;;10.66;100.00
63281;BME280;49406;51.044;3.766;2023-03-21T07:30:44;101404.64;;;10.75;100.00
63281;BME280;49406;51.044;3.766;2023-03-21T07:33:19;101397.91;;;10.81;100.00
63281;BME280;49406;51.044;3.766;2023-03-21T07:35:55;101405.15;;;10.86;100.00
63281;BME280;49406;51.044;3.766;2023-03-21T07:38:31;101407.66;;;10.90;100.00
63281;BME280;49406;51.044;3.766;2023-03-21T07:41:06;101409.46;;;11.04;100.00
63281;BME280;49406;51.044;3.766;2023-03-21T07:43:41;101409.78;;;11.14;100.00
63281;BME280;49406;51.044;3.766;2023-03-21T07:46:15;101411.63;;;11.21;100.00
63281;BME280;49406;51.044;3.766;2023-03-21T07:48:50;101413.58;;;11.23;100.00
63281;BME280;49406;51.044;3.766;2023-03-21T07:51:25;101411.61;;;11.31;100.00
63281;BME280;49406;51.044;3.766;2023-03-21T07:53:59;101410.59;;;11.45;100.00
63281;BME280;49406;51.044;3.766;2023-03-21T07:56:34;101408.39;;;11.52;100.00
63281;BME280;49406;51.044;3.766;2023-03-21T07:59:09;101408.58;;;11.53;100.00
63281;BME280;49406;51.044;3.766;2023-03-21T08:01:43;101403.19;;;11.56;100.00
63281;BME280;49406;51.044;3.766;2023-03-21T08:04:16;101399.65;;;11.66;100.00
63281;BME280;49406;51.044;3.766;2023-03-21T08:06:51;101392.91;;;11.74;100.00
63281;BME280;49406;51.044;3.766;2023-03-21T08:09:26;101393.56;;;11.82;100.00
63281;BME280;49406;51.044;3.766;2023-03-21T08:12:01;101388.70;;;11.85;100.00
63281;BME280;49406;51.044;3.766;2023-03-21T08:14:36;101388.75;;;11.90;100.00
63281;BME280;49406;51.044;3.766;2023-03-21T08:17:10;101384.45;;;11.97;100.00
63281;BME280;49406;51.044;3.766;2023-03-21T08:19:44;101384.60;;;12.10;100.00
63281;BME280;49406;51.044;3.766;2023-03-21T08:22:19;101383.49;;;12.22;100.00
63281;BME280;49406;51.044;3.766;2023-03-21T08:24:53;101377.10;;;12.30;100.00
63281;BME280;49406;51.044;3.766;2023-03-21T08:27:28;101377.68;;;12.38;100.00
63281;BME280;49406;51.044;3.766;2023-03-21T08:30:04;101371.31;;;12.49;100.00
63281;BME280;49406;51.044;3.766;2023-03-21T08:32:39;101369.84;;;12.62;100.00
63281;BME280;49406;51.044;3.766;2023-03-21T08:35:16;101364.98;;;12.71;100.00
63281;BME280;49406;51.044;3.766;2023-03-21T08:37:51;101368.21;;;12.79;100.00
63281;BME280;49406;51.044;3.766;2023-03-21T08:40:26;101370.71;;;12.86;100.00
63281;BME280;49406;51.044;3.766;2023-03-21T08:43:01;101370.98;;;12.96;100.00
63281;BME280;49406;51.044;3.766;2023-03-21T08:45:36;101361.73;;;13.09;100.00
63281;BME280;49406;51.044;3.766;2023-03-21T08:48:11;101357.58;;;13.15;100.00
63281;BME280;49406;51.044;3.766;2023-03-21T08:50:45;101352.64;;;13.10;100.00
63281;BME280;49406;51.044;3.766;2023-03-21T08:53:20;101357.20;;;13.12;100.00
63281;BME280;49406;51.044;3.766;2023-03-21T08:55:55;101354.36;;;13.08;100.00
63281;BME280;49406;51.044;3.766;2023-03-21T08:58:30;101354.21;;;13.11;100.00
63281;BME280;49406;51.044;3.766;2023-03-21T09:01:04;101353.54;;;13.14;100.00
63281;BME280;49406;51.044;3.766;2023-03-21T09:03:43;101348.92;;;13.08;99.98
63281;BME280;49406;51.044;3.766;2023-03-21T09:06:18;101355.52;;;12.96;100.00
63281;BME280;49406;51.044;3.766;2023-03-21T09:08:53;101361.42;;;12.89;100.00
63281;BME280;49406;51.044;3.766;2023-03-21T09:11:29;101364.62;;;12.92;100.00
63281;BME280;49406;51.044;3.766;2023-03-21T09:14:03;101361.00;;;13.03;100.00
63281;BME280;49406;51.044;3.766;2023-03-21T09:16:38;101360.30;;;13.01;100.00
63281;BME280;49406;51.044;3.766;2023-03-21T09:19:13;101360.98;;;12.98;100.00
63281;BME280;49406;51.044;3.766;2023-03-21T09:21:48;101364.13;;;12.95;100.00
63281;BME280;49406;51.044;3.766;2023-03-21T09:24:23;101376.40;;;12.95;100.00
63281;BME280;49406;51.044;3.766;2023-03-21T09:26:58;101382.76;;;13.01;99.67
63281;BME280;49406;51.044;3.766;2023-03-21T09:29:33;101371.50;;;12.95;99.27
63281;BME280;49406;51.044;3.766;2023-03-21T09:32:07;101377.06;;;12.90;99.77
63281;BME280;49406;51.044;3.766;2023-03-21T09:34:42;101380.42;;;12.93;100.00
63281;BME280;49406;51.044;3.766;2023-03-21T09:37:18;101376.83;;;13.05;99.36
63281;BME280;49406;51.044;3.766;2023-03-21T09:39:53;101377.25;;;13.15;99.44
63281;BME280;49406;51.044;3.766;2023-03-21T09:42:35;101381.86;;;13.21;99.00
63281;BME280;49406;51.044;3.766;2023-03-21T09:45:17;101373.25;;;13.19;97.59
63281;BME280;49406;51.044;3.766;2023-03-21T09:47:54;101379.44;;;13.27;97.81
63281;BME280;49406;51.044;3.766;2023-03-21T09:50:32;101384.10;;;13.44;97.12
63281;BME280;49406;51.044;3.766;2023-03-21T09:53:11;101388.88;;;13.48;95.53
63281;BME280;49406;51.044;3.766;2023-03-21T09:55:48;101388.00;;;13.49;95.23
63281;BME280;49406;51.044;3.766;2023-03-21T09:58:27;101378.48;;;13.44;92.97
63281;BME280;49406;51.044;3.766;2023-03-21T10:01:08;101378.33;;;13.44;94.25
63281;BME280;49406;51.044;3.766;2023-03-21T10:03:55;101374.85;;;13.54;93.32
63281;BME280;49406;51.044;3.766;2023-03-21T10:06:34;101369.10;;;13.70;92.20
63281;BME280;49406;51.044;3.766;2023-03-21T10:09:15;101373.31;;;13.65;91.70
63281;BME280;49406;51.044;3.766;2023-03-21T10:11:57;101369.92;;;13.59;92.19
63281;BME280;49406;51.044;3.766;2023-03-21T10:14:37;101379.23;;;13.58;92.53
63281;BME280;49406;51.044;3.766;2023-03-21T10:17:21;101388.08;;;13.66;93.27
63281;BME280;49406;51.044;3.766;2023-03-21T10:20:11;101387.91;;;13.73;92.33
63281;BME280;49406;51.044;3.766;2023-03-21T10:22:49;101399.33;;;13.68;91.81
63281;BME280;49406;51.044;3.766;2023-03-21T10:25:31;101405.23;;;13.56;91.63
63281;BME280;49406;51.044;3.766;2023-03-21T10:28:08;101395.66;;;13.39;92.07
63281;BME280;49406;51.044;3.766;2023-03-21T10:30:47;101400.50;;;13.26;92.79
63281;BME280;49406;51.044;3.766;2023-03-21T10:33:25;101403.19;;;13.31;93.73
63281;BME280;49406;51.044;3.766;2023-03-21T10:36:04;101396.98;;;13.25;93.14
63281;BME280;49406;51.044;3.766;2023-03-21T10:38:43;101403.29;;;13.20;94.18
63281;BME280;49406;51.044;3.766;2023-03-21T10:41:19;101396.96;;;13.22;94.45
63281;BME280;49406;51.044;3.766;2023-03-21T10:44:07;101397.50;;;13.25;94.38
63281;BME280;49406;51.044;3.766;2023-03-21T10:46:53;101397.64;;;13.46;94.52
63281;BME280;49406;51.044;3.766;2023-03-21T10:49:30;101389.48;;;13.68;92.65
63281;BME280;49406;51.044;3.766;2023-03-21T10:52:16;101383.42;;;13.93;92.84
63281;BME280;49406;51.044;3.766;2023-03-21T10:55:06;101365.25;;;14.50;90.63
63281;BME280;49406;51.044;3.766;2023-03-21T10:57:41;101368.73;;;15.10;87.88
63281;BME280;49406;51.044;3.766;2023-03-21T11:00:22;101370.76;;;15.41;84.65
63281;BME280;49406;51.044;3.766;2023-03-21T11:02:58;101379.38;;;15.45;83.46
63281;BME280;49406;51.044;3.766;2023-03-21T11:05:38;101378.70;;;15.43;83.05
63281;BME280;49406;51.044;3.766;2023-03-21T11:08:16;101381.38;;;15.27;83.04
63281;BME280;49406;51.044;3.766;2023-03-21T11:10:59;101376.27;;;15.23;83.28
63281;BME280;49406;51.044;3.766;2023-03-21T11:13:38;101372.61;;;15.12;82.69
63281;BME280;49406;51.044;3.766;2023-03-21T11:16:24;101371.23;;;14.97;82.91
63281;BME280;49406;51.044;3.766;2023-03-21T11:19:02;101368.77;;;14.94;84.30
63281;BME280;49406;51.044;3.766;2023-03-21T11:21:45;101367.16;;;15.02;84.36
63281;BME280;49406;51.044;3.766;2023-03-21T11:24:21;101363.30;;;14.98;83.45
63281;BME280;49406;51.044;3.766;2023-03-21T11:26:56;101368.06;;;14.98;83.46
63281;BME280;49406;51.044;3.766;2023-03-21T11:29:34;101369.64;;;14.97;82.95
63281;BME280;49406;51.044;3.766;2023-03-21T11:32:15;101376.50;;;14.95;82.39
63281;BME280;49406;51.044;3.766;2023-03-21T11:34:57;101375.64;;;14.97;82.04
63281;BME280;49406;51.044;3.766;2023-03-21T11:37:37;101371.94;;;14.95;82.47
63281;BME280;49406;51.044;3.766;2023-03-21T11:40:22;101367.19;;;14.95;82.20
63281;BME280;49406;51.044;3.766;2023-03-21T11:42:59;101376.33;;;14.93;82.84
63281;BME280;49406;51.044;3.766;2023-03-21T11:45:35;101372.13;;;14.83;83.07
63281;BME280;49406;51.044;3.766;2023-03-21T11:48:13;101368.77;;;14.74;83.45
63281;BME280;49406;51.044;3.766;2023-03-21T11:50:46;101363.85;;;14.81;84.66
63281;BME280;49406;51.044;3.766;2023-03-21T11:53:33;101359.41;;;15.00;84.15
63281;BME280;49406;51.044;3.766;2023-03-21T11:56:23;101362.90;;;15.20;83.88
63281;BME280;49406;51.044;3.766;2023-03-21T11:59:27;101361.29;;;15.34;83.28
63281;BME280;49406;51.044;3.766;2023-03-21T12:02:20;101352.77;;;15.43;82.07
63281;BME280;49406;51.044;3.766;2023-03-21T12:05:03;101348.17;;;15.52;82.94
63281;BME280;49406;51.044;3.766;2023-03-21T12:07:49;101353.80;;;15.63;83.09
63281;BME280;49406;51.044;3.766;2023-03-21T12:10:32;101349.70;;;15.71;82.90
63281;BME280;49406;51.044;3.766;2023-03-21T12:13:24;101339.66;;;15.71;81.65
63281;BME280;49406;51.044;3.766;2023-03-21T12:16:14;101340.42;;;15.52;81.26
63281;BME280;49406;51.044;3.766;2023-03-21T12:19:04;101339.08;;;15.35;82.24
63281;BME280;49406;51.044;3.766;2023-03-21T12:21:51;101335.44;;;15.16;82.78
63281;BME280;49406;51.044;3.766;2023-03-21T12:24:32;101333.52;;;15.07;84.19
63281;BME280;49406;51.044;3.766;2023-03-21T12:27:13;101327.91;;;14.96;84.56
63281;BME280;49406;51.044;3.766;2023-03-21T12:33:02;101318.98;;;14.80;85.34
63281;BME280;49406;51.044;3.766;2023-03-21T12:35:56;101311.58;;;14.81;85.88
63281;BME280;49406;51.044;3.766;2023-03-21T12:38:42;101314.38;;;14.76;86.57
63281;BME280;49406;51.044;3.766;2023-03-21T12:41:23;101320.02;;;14.78;87.46
63281;BME280;49406;51.044;3.766;2023-03-21T12:44:03;101318.45;;;14.80;87.11
63281;BME280;49406;51.044;3.766;2023-03-21T12:46:46;101312.29;;;14.80;87.56
63281;BME280;49406;51.044;3.766;2023-03-21T12:49:27;101312.45;;;14.78;87.73
63281;BME280;49406;51.044;3.766;2023-03-21T12:52:09;101315.27;;;14.79;88.21
63281;BME280;49406;51.044;3.766;2023-03-21T12:54:50;101315.60;;;14.88;87.42
63281;BME280;49406;51.044;3.766;2023-03-21T12:57:29;101316.32;;;14.79;87.81
63281;BME280;49406;51.044;3.766;2023-03-21T13:00:11;101313.34;;;14.70;89.11
63281;BME280;49406;51.044;3.766;2023-03-21T13:02:52;101306.50;;;14.61;89.59
63281;BME280;49406;51.044;3.766;2023-03-21T13:05:30;101311.26;;;14.50;90.56
63281;BME280;49406;51.044;3.766;2023-03-21T13:08:08;101306.33;;;14.44;91.31
63281;BME280;49406;51.044;3.766;2023-03-21T13:10:46;101298.39;;;14.40;91.62
63281;BME280;49406;51.044;3.766;2023-03-21T13:13:27;101299.96;;;14.28;92.45
63281;BME280;49406;51.044;3.766;2023-03-21T13:16:07;101302.06;;;14.12;93.41
63281;BME280;49406;51.044;3.766;2023-03-21T13:18:51;101300.47;;;14.02;94.62
63281;BME280;49406;51.044;3.766;2023-03-21T13:21:39;101299.41;;;14.07;94.77
63281;BME280;49406;51.044;3.766;2023-03-21T13:24:39;101295.55;;;14.06;95.58
63281;BME280;49406;51.044;3.766;2023-03-21T13:27:20;101292.20;;;13.94;96.67
63281;BME280;49406;51.044;3.766;2023-03-21T13:30:06;101297.98;;;13.86;97.38
63281;BME280;49406;51.044;3.766;2023-03-21T13:32:54;101292.89;;;13.89;97.36
63281;BME280;49406;51.044;3.766;2023-03-21T13:35:36;101293.23;;;13.84;97.96
63281;BME280;49406;51.044;3.766;2023-03-21T13:38:17;101289.01;;;13.78;98.74
63281;BME280;49406;51.044;3.766;2023-03-21T13:40:58;101294.61;;;13.73;100.00
63281;BME280;49406;51.044;3.766;2023-03-21T13:43:40;101297.23;;;13.72;100.00
63281;BME280;49406;51.044;3.766;2023-03-21T13:46:35;101298.83;;;13.64;100.00
63281;BME280;49406;51.044;3.766;2023-03-21T13:49:26;101297.36;;;13.52;100.00
63281;BME280;49406;51.044;3.766;2023-03-21T13:52:23;101295.23;;;13.43;100.00